createdAt,value
2018-09-14T00:02:00.039Z,100096.55
2018-09-14T00:04:28.651Z,100095.14
2018-09-14T00:06:57.376Z,100098.25
2018-09-14T00:09:26.075Z,100105.66
2018-09-14T00:11:54.773Z,100110.27
2018-09-14T00:14:23.495Z,100111.73
2018-09-14T00:16:52.174Z,100112.73
2018-09-14T00:19:20.876Z,100121.00
2018-09-14T00:21:49.587Z,100124.34
2018-09-14T00:24:18.266Z,100127.79
2018-09-14T00:26:46.950Z,100124.23
2018-09-14T00:29:15.618Z,100121.59
2018-09-14T00:31:44.242Z,100118.08
2018-09-14T00:34:13.190Z,100125.50
2018-09-14T00:36:42.123Z,100130.72
2018-09-14T00:39:11.518Z,100136.62
2018-09-14T00:41:40.277Z,100135.56
2018-09-14T00:44:08.925Z,100136.63
2018-09-14T00:46:37.687Z,100135.91
2018-09-14T00:49:06.434Z,100138.18
2018-09-14T00:51:35.070Z,100132.80
2018-09-14T00:54:03.726Z,100140.00
2018-09-14T00:56:32.415Z,100138.75
2018-09-14T00:59:01.072Z,100138.36
2018-09-14T01:01:29.993Z,100136.16
2018-09-14T01:03:58.726Z,100130.55
2018-09-14T01:06:27.341Z,100126.32
2018-09-14T01:08:56.003Z,100128.52
2018-09-14T01:11:24.742Z,100134.12
2018-09-14T01:13:53.397Z,100128.34
2018-09-14T01:16:22.134Z,100129.36
2018-09-14T01:18:50.766Z,100118.08
2018-09-14T01:21:19.400Z,100110.41
2018-09-14T01:23:48.610Z,100123.03
2018-09-14T01:26:17.327Z,100120.03
2018-09-14T01:31:36.686Z,100128.61
2018-09-14T01:34:05.383Z,100121.82
2018-09-14T01:36:34.006Z,100118.31
2018-09-14T01:39:02.776Z,100120.52
2018-09-14T01:41:31.402Z,100113.33
2018-09-14T01:44:00.029Z,100115.91
2018-09-14T01:46:28.713Z,100118.11
2018-09-14T01:48:57.358Z,100115.91
2018-09-14T01:51:26.647Z,100113.53
2018-09-14T01:53:55.301Z,100111.05
2018-09-14T01:56:23.929Z,100113.17
2018-09-14T01:58:52.657Z,100117.94
2018-09-14T02:01:21.669Z,100120.19
2018-09-14T02:03:50.459Z,100111.00
2018-09-14T02:06:19.207Z,100109.69
2018-09-14T02:08:47.844Z,100109.57
2018-09-14T02:11:16.964Z,100112.96
2018-09-14T02:13:45.637Z,100113.82
2018-09-14T02:16:14.328Z,100116.23
2018-09-14T02:18:42.958Z,100122.97
2018-09-14T02:21:11.877Z,100112.31
2018-09-14T02:23:40.529Z,100114.52
2018-09-14T02:26:09.182Z,100107.00
2018-09-14T02:28:37.862Z,100103.28
2018-09-14T02:31:06.564Z,100105.00
2018-09-14T02:33:35.406Z,100104.91
2018-09-14T02:36:04.178Z,100106.30
2018-09-14T02:38:33.111Z,100101.93
2018-09-14T02:41:02.332Z,100105.28
2018-09-14T02:43:31.036Z,100109.05
2018-09-14T02:45:59.673Z,100104.14
2018-09-14T02:48:28.886Z,100107.00
2018-09-14T02:50:58.530Z,100108.14
2018-09-14T02:53:27.279Z,100113.28
2018-09-14T02:55:56.257Z,100115.45
2018-09-14T02:58:25.125Z,100109.82
2018-09-14T03:00:53.820Z,100112.83
2018-09-14T03:03:22.530Z,100121.61
2018-09-14T03:05:51.320Z,100125.73
2018-09-14T03:08:20.002Z,100127.19
2018-09-14T03:10:48.729Z,100118.50
2018-09-14T03:13:17.977Z,100123.47
2018-09-14T03:15:46.933Z,100129.28
2018-09-14T03:18:15.574Z,100127.48
2018-09-14T03:20:44.264Z,100129.36
2018-09-14T03:23:12.948Z,100133.83
2018-09-14T03:25:41.762Z,100129.38
2018-09-14T03:28:10.417Z,100130.95
2018-09-14T03:30:39.162Z,100126.13
2018-09-14T03:33:08.039Z,100127.66
2018-09-14T03:35:36.641Z,100123.68
2018-09-14T03:38:05.305Z,100120.91
2018-09-14T03:40:33.942Z,100120.55
2018-09-14T03:43:02.682Z,100120.02
2018-09-14T03:45:31.319Z,100115.81
2018-09-14T03:48:00.182Z,100119.29
2018-09-14T03:50:28.862Z,100115.20
2018-09-14T03:52:57.489Z,100125.81
2018-09-14T03:55:27.005Z,100127.42
2018-09-14T03:57:55.621Z,100128.01
2018-09-14T04:00:24.344Z,100132.58
2018-09-14T04:02:53.017Z,100129.73
2018-09-14T04:05:21.730Z,100132.71
2018-09-14T04:07:50.674Z,100134.30
2018-09-14T04:10:19.530Z,100136.98
2018-09-14T04:12:48.233Z,100132.00
2018-09-14T04:15:16.929Z,100130.31
2018-09-14T04:17:45.616Z,100134.45
2018-09-14T04:20:14.242Z,100132.86
2018-09-14T04:22:43.102Z,100140.12
2018-09-14T04:25:11.793Z,100134.50
2018-09-14T04:27:40.519Z,100136.61
2018-09-14T04:30:09.267Z,100141.70
2018-09-14T04:32:37.937Z,100147.44
2018-09-14T04:35:06.583Z,100148.25
2018-09-14T04:37:35.270Z,100143.97
2018-09-14T04:40:04.313Z,100148.09
2018-09-14T04:42:33.018Z,100147.62
2018-09-14T04:45:01.963Z,100141.23
2018-09-14T04:47:30.739Z,100148.73
2018-09-14T04:49:59.523Z,100140.36
2018-09-14T04:52:28.337Z,100147.91
2018-09-14T04:54:56.982Z,100141.70
2018-09-14T04:57:25.681Z,100137.19
2018-09-14T04:59:54.465Z,100143.05
2018-09-14T05:02:23.151Z,100150.31
2018-09-14T05:04:52.224Z,100145.94
2018-09-14T05:07:21.006Z,100141.81
2018-09-14T05:09:50.258Z,100154.11
2018-09-14T05:12:18.972Z,100159.64
2018-09-14T05:14:47.741Z,100156.66
2018-09-14T05:17:16.424Z,100162.19
2018-09-14T05:19:45.140Z,100170.90
2018-09-14T05:22:13.846Z,100167.57
2018-09-14T05:24:42.610Z,100164.55
2018-09-14T05:27:11.817Z,100173.06
2018-09-14T05:29:40.630Z,100177.92
2018-09-14T05:32:09.259Z,100177.53
2018-09-14T05:34:38.844Z,100174.20
2018-09-14T05:37:07.478Z,100178.83
2018-09-14T05:39:36.460Z,100187.19
2018-09-14T05:42:05.221Z,100183.16
2018-09-14T05:44:33.878Z,100183.34
2018-09-14T05:47:02.677Z,100185.86
2018-09-14T05:49:31.421Z,100190.08
2018-09-14T05:52:00.202Z,100185.90
2018-09-14T05:54:28.894Z,100187.72
2018-09-14T05:56:57.789Z,100190.41
2018-09-14T05:59:26.457Z,100184.84
2018-09-14T06:01:55.096Z,100191.66
2018-09-14T06:04:23.826Z,100189.59
2018-09-14T06:06:52.513Z,100192.58
2018-09-14T06:09:21.131Z,100189.45
2018-09-14T06:11:49.808Z,100191.09
2018-09-14T06:14:18.529Z,100200.95
2018-09-14T06:16:47.295Z,100198.78
2018-09-14T06:19:15.978Z,100198.73
2018-09-14T06:21:44.622Z,100199.08
2018-09-14T06:24:13.500Z,100204.52
2018-09-14T06:26:42.273Z,100197.73
2018-09-14T06:29:10.924Z,100201.71
2018-09-14T06:31:39.678Z,100202.81
2018-09-14T06:34:08.311Z,100199.55
2018-09-14T06:36:37.006Z,100200.42
2018-09-14T06:39:09.007Z,100204.41
2018-09-14T06:41:37.657Z,100202.05
2018-09-14T06:44:06.533Z,100200.27
2018-09-14T06:46:35.185Z,100208.34
2018-09-14T06:49:05.396Z,100205.12
2018-09-14T06:51:34.925Z,100213.78
2018-09-14T06:54:03.892Z,100211.91
2018-09-14T06:56:33.441Z,100215.72
2018-09-14T06:59:02.186Z,100221.34
2018-09-14T07:01:30.874Z,100221.39
2018-09-14T07:03:59.898Z,100224.86
2018-09-14T07:06:28.600Z,100228.75
2018-09-14T07:08:57.310Z,100229.80
2018-09-14T07:11:26.785Z,100232.50
2018-09-14T07:13:55.657Z,100238.94
2018-09-14T07:16:24.274Z,100234.42
2018-09-14T07:18:52.934Z,100236.20
2018-09-14T07:21:21.622Z,100238.37
2018-09-14T07:23:50.522Z,100242.61
2018-09-14T07:26:19.141Z,100242.22
2018-09-14T07:28:47.875Z,100241.55
2018-09-14T07:31:16.892Z,100240.48
2018-09-14T07:33:46.465Z,100241.02
2018-09-14T07:36:16.006Z,100238.95
2018-09-14T07:38:44.677Z,100230.47
2018-09-14T07:41:13.654Z,100237.42
2018-09-14T07:43:42.334Z,100237.36
2018-09-14T07:46:11.234Z,100233.26
2018-09-14T07:48:39.866Z,100234.36
2018-09-14T07:51:09.222Z,100239.93
2018-09-14T07:53:38.019Z,100232.61
2018-09-14T07:56:07.143Z,100238.30
2018-09-14T07:58:35.825Z,100245.90
2018-09-14T08:01:04.523Z,100256.49
2018-09-14T08:03:33.377Z,100249.37
2018-09-14T08:06:02.154Z,100259.96
2018-09-14T08:08:31.061Z,100260.09
2018-09-14T08:10:59.750Z,100264.44
2018-09-14T08:13:28.474Z,100264.59
2018-09-14T08:15:57.863Z,100266.72
2018-09-14T08:18:26.513Z,100274.47
2018-09-14T08:20:55.142Z,100283.48
2018-09-14T08:23:23.827Z,100279.88
2018-09-14T08:25:52.759Z,100274.78
2018-09-14T08:28:21.427Z,100281.28
2018-09-14T08:30:50.149Z,100277.77
2018-09-14T08:33:18.903Z,100288.99
2018-09-14T08:35:48.030Z,100287.59
2018-09-14T08:38:16.903Z,100289.52
2018-09-14T08:40:45.635Z,100292.06
2018-09-14T08:43:14.390Z,100293.56
2018-09-14T08:45:43.073Z,100289.16
2018-09-14T08:48:12.610Z,100287.73
2018-09-14T08:50:42.137Z,100284.74
2018-09-14T08:53:10.901Z,100284.81
2018-09-14T08:55:39.793Z,100290.04
2018-09-14T08:58:08.605Z,100296.16
2018-09-14T09:00:37.399Z,100296.16
2018-09-14T09:03:07.087Z,100294.81
2018-09-14T09:05:36.898Z,100288.84
2018-09-14T09:08:05.595Z,100289.38
2018-09-14T09:10:34.381Z,100292.01
2018-09-14T09:13:03.830Z,100292.59
2018-09-14T09:15:32.505Z,100290.67
2018-09-14T09:18:01.169Z,100296.12
2018-09-14T09:20:30.629Z,100291.77
2018-09-14T09:22:59.622Z,100288.92
2018-09-14T09:25:28.334Z,100293.20
2018-09-14T09:27:56.977Z,100290.08
2018-09-14T09:30:25.653Z,100297.06
2018-09-14T09:32:54.387Z,100299.13
2018-09-14T09:35:23.135Z,100296.82
2018-09-14T09:37:51.873Z,100296.00
2018-09-14T09:40:20.575Z,100295.89
2018-09-14T09:42:49.229Z,100300.28
2018-09-14T09:45:18.025Z,100294.31
2018-09-14T09:47:46.660Z,100294.36
2018-09-14T09:50:15.385Z,100297.11
2018-09-14T09:52:44.138Z,100298.17
2018-09-14T09:55:12.771Z,100297.87
2018-09-14T09:57:42.318Z,100302.50
2018-09-14T10:00:16.373Z,100296.23
2018-09-14T10:02:50.267Z,100300.12
2018-09-14T10:05:24.222Z,100296.47
2018-09-14T10:07:52.898Z,100300.12
2018-09-14T10:10:21.598Z,100306.38
2018-09-14T10:12:50.278Z,100297.07
2018-09-14T10:15:19.610Z,100303.69
2018-09-14T10:17:48.328Z,100306.22
2018-09-14T10:20:17.033Z,100303.46
2018-09-14T10:22:45.665Z,100300.19
2018-09-14T10:25:14.910Z,100300.64
2018-09-14T10:27:43.549Z,100296.30
2018-09-14T10:30:12.233Z,100304.68
2018-09-14T10:32:41.363Z,100307.17
2018-09-14T10:35:11.139Z,100301.58
2018-09-14T10:37:39.964Z,100302.58
2018-09-14T10:40:09.524Z,100292.89
2018-09-14T10:42:38.336Z,100302.63
2018-09-14T10:45:07.308Z,100295.78
2018-09-14T10:47:35.947Z,100297.34
2018-09-14T10:50:05.365Z,100297.64
2018-09-14T10:52:34.185Z,100291.76
2018-09-14T10:55:02.915Z,100283.50
2018-09-14T10:57:31.722Z,100289.47
2018-09-14T11:00:00.365Z,100288.98
2018-09-14T11:02:29.804Z,100297.48
2018-09-14T11:04:58.438Z,100298.75
2018-09-14T11:07:27.106Z,100292.00
2018-09-14T11:09:56.009Z,100287.42
2018-09-14T11:12:24.968Z,100277.29
2018-09-14T11:14:53.805Z,100285.63
2018-09-14T11:17:22.498Z,100274.17
2018-09-14T11:19:51.127Z,100275.72
2018-09-14T11:22:19.799Z,100276.30
2018-09-14T11:24:48.720Z,100281.06
2018-09-14T11:27:17.323Z,100280.36
2018-09-14T11:29:45.962Z,100280.69
2018-09-14T11:32:14.654Z,100276.52
2018-09-14T11:34:43.570Z,100285.22
2018-09-14T11:37:12.477Z,100277.45
2018-09-14T11:39:41.135Z,100275.53
2018-09-14T11:42:09.793Z,100284.77
2018-09-14T11:44:38.430Z,100280.44
2018-09-14T11:47:07.394Z,100275.00
2018-09-14T11:49:36.060Z,100281.61
2018-09-14T11:52:04.743Z,100275.47
2018-09-14T11:54:33.411Z,100274.23
2018-09-14T11:57:02.083Z,100273.20
2018-09-14T11:59:30.757Z,100276.25
2018-09-14T12:01:59.767Z,100274.02
2018-09-14T12:04:28.437Z,100275.30
2018-09-14T12:06:57.087Z,100269.53
2018-09-14T12:09:25.751Z,100270.07
2018-09-14T12:11:54.457Z,100263.03
2018-09-14T12:14:23.102Z,100263.56
2018-09-14T12:16:51.757Z,100268.25
2018-09-14T12:19:20.401Z,100262.36
2018-09-14T12:21:49.034Z,100271.38
2018-09-14T12:24:17.734Z,100266.30
2018-09-14T12:26:46.391Z,100269.50
2018-09-14T12:29:15.072Z,100269.00
2018-09-14T12:31:43.761Z,100271.21
2018-09-14T12:34:12.480Z,100265.67
2018-09-14T12:36:41.163Z,100272.88
2018-09-14T12:39:10.554Z,100273.94
2018-09-14T12:41:39.462Z,100273.02
2018-09-14T12:44:08.371Z,100274.08
2018-09-14T12:46:37.001Z,100277.89
2018-09-14T12:49:05.779Z,100278.74
2018-09-14T12:51:34.485Z,100274.16
2018-09-14T12:54:03.255Z,100275.92
2018-09-14T12:56:32.038Z,100274.90
2018-09-14T12:59:00.985Z,100273.30
2018-09-14T13:01:29.941Z,100271.05
2018-09-14T13:03:58.575Z,100275.14
2018-09-14T13:06:27.233Z,100273.30
2018-09-14T13:08:55.941Z,100274.76
2018-09-14T13:11:24.608Z,100269.39
2018-09-14T13:13:53.324Z,100277.18
2018-09-14T13:16:21.987Z,100272.27
2018-09-14T13:18:50.603Z,100264.02
2018-09-14T13:21:19.249Z,100266.38
2018-09-14T13:23:47.906Z,100260.89
2018-09-14T13:26:16.647Z,100267.72
2018-09-14T13:28:45.306Z,100268.27
2018-09-14T13:31:13.939Z,100267.52
2018-09-14T13:33:42.621Z,100268.45
2018-09-14T13:36:11.402Z,100268.27
2018-09-14T13:38:40.106Z,100271.16
2018-09-14T13:41:08.766Z,100275.47
2018-09-14T13:43:37.462Z,100280.03
2018-09-14T13:46:06.130Z,100275.97
2018-09-14T13:48:34.765Z,100277.72
2018-09-14T13:51:03.487Z,100264.61
2018-09-14T13:53:32.118Z,100270.53
2018-09-14T13:56:00.755Z,100270.81
2018-09-14T13:58:29.480Z,100273.86
2018-09-14T14:00:58.126Z,100275.92
2018-09-14T14:03:26.808Z,100267.10
2018-09-14T14:05:55.448Z,100265.05
2018-09-14T14:08:24.076Z,100262.98
2018-09-14T14:10:52.710Z,100263.02
2018-09-14T14:13:21.350Z,100257.29
2018-09-14T14:15:50.062Z,100264.18
2018-09-14T14:18:18.729Z,100261.29
2018-09-14T14:20:47.401Z,100259.31
2018-09-14T14:23:16.158Z,100261.48
2018-09-14T14:25:44.875Z,100257.08
2018-09-14T14:28:13.565Z,100258.11
2018-09-14T14:30:42.206Z,100258.40
2018-09-14T14:33:10.903Z,100262.52
2018-09-14T14:35:39.598Z,100256.41
2018-09-14T14:38:08.335Z,100258.84
2018-09-14T14:40:37.061Z,100257.23
2018-09-14T14:43:05.794Z,100258.71
2018-09-14T14:45:34.491Z,100254.41
2018-09-14T14:48:03.162Z,100255.95
2018-09-14T14:50:31.794Z,100247.67
2018-09-14T14:53:00.485Z,100249.47
2018-09-14T14:55:29.215Z,100252.70
2018-09-14T14:57:57.875Z,100255.44
2018-09-14T15:00:26.630Z,100252.42
2018-09-14T15:02:55.275Z,100252.95
2018-09-14T15:05:23.962Z,100254.73
2018-09-14T15:07:52.573Z,100248.52
2018-09-14T15:10:21.422Z,100254.88
2018-09-14T15:12:50.056Z,100251.92
2018-09-14T15:15:18.694Z,100255.97
2018-09-14T15:17:47.487Z,100257.95
2018-09-14T15:20:16.165Z,100259.91
2018-09-14T15:22:44.826Z,100258.02
2018-09-14T15:25:13.565Z,100260.94
2018-09-14T15:27:42.385Z,100258.77
2018-09-14T15:30:11.102Z,100259.05
2018-09-14T15:32:39.757Z,100256.41
2018-09-14T15:35:08.479Z,100255.14
2018-09-14T15:37:37.129Z,100257.47
2018-09-14T15:40:06.007Z,100256.22
2018-09-14T15:42:34.681Z,100255.38
2018-09-14T15:45:03.306Z,100251.50
2018-09-14T15:47:31.953Z,100253.19
2018-09-14T15:50:00.593Z,100252.30
2018-09-14T15:52:29.242Z,100252.58
2018-09-14T15:54:57.930Z,100258.16
2018-09-14T15:57:26.574Z,100255.17
2018-09-14T15:59:55.206Z,100254.96
2018-09-14T16:02:23.995Z,100256.34
2018-09-14T16:04:52.701Z,100254.64
2018-09-14T16:07:21.407Z,100254.39
2018-09-14T16:09:50.041Z,100249.70
2018-09-14T16:12:18.682Z,100254.83
2018-09-14T16:14:47.334Z,100259.38
2018-09-14T16:17:15.963Z,100254.25
2018-09-14T16:19:44.642Z,100261.54
2018-09-14T16:22:13.338Z,100255.50
2018-09-14T16:24:42.002Z,100259.72
2018-09-14T16:27:10.742Z,100258.27
2018-09-14T16:29:39.368Z,100257.69
2018-09-14T16:32:08.042Z,100256.91
2018-09-14T16:34:36.674Z,100256.38
2018-09-14T16:37:05.664Z,100257.83
2018-09-14T16:39:34.400Z,100266.34
2018-09-14T16:42:03.403Z,100267.30
2018-09-14T16:44:32.141Z,100268.40
2018-09-14T16:47:00.769Z,100268.52
2018-09-14T16:49:29.393Z,100272.67
2018-09-14T16:51:58.286Z,100265.50
2018-09-14T16:54:27.013Z,100269.88
2018-09-14T16:56:55.674Z,100270.16
2018-09-14T16:59:24.325Z,100267.19
2018-09-14T17:01:53.062Z,100267.28
2018-09-14T17:04:21.926Z,100265.81
2018-09-14T17:06:50.707Z,100267.16
2018-09-14T17:09:19.522Z,100266.03
2018-09-14T17:11:48.210Z,100262.58
2018-09-14T17:14:16.898Z,100267.05
2018-09-14T17:16:45.529Z,100265.55
2018-09-14T17:19:14.213Z,100274.06
2018-09-14T17:21:42.941Z,100277.53
2018-09-14T17:24:11.661Z,100271.80
2018-09-14T17:26:40.281Z,100276.61
2018-09-14T17:29:09.577Z,100275.66
2018-09-14T17:31:40.009Z,100271.58
2018-09-14T17:34:08.676Z,100276.44
2018-09-14T17:36:37.394Z,100275.87
2018-09-14T17:39:07.858Z,100279.39
2018-09-14T17:41:36.517Z,100277.43
2018-09-14T17:44:05.231Z,100286.23
2018-09-14T17:46:33.887Z,100280.19
2018-09-14T17:49:02.694Z,100282.84
2018-09-14T17:51:31.407Z,100285.46
2018-09-14T17:54:00.130Z,100288.16
2018-09-14T17:56:30.886Z,100286.52
2018-09-14T17:58:59.559Z,100285.30
2018-09-14T18:01:28.217Z,100290.89
2018-09-14T18:03:59.205Z,100292.28
2018-09-14T18:06:31.211Z,100285.62
2018-09-14T18:09:00.894Z,100284.36
2018-09-14T18:11:29.559Z,100279.66
2018-09-14T18:13:58.268Z,100275.56
2018-09-14T18:16:27.063Z,100282.52
2018-09-14T18:18:55.908Z,100285.62
2018-09-14T18:21:24.578Z,100291.06
2018-09-14T18:23:53.243Z,100285.78
2018-09-14T18:26:22.070Z,100286.36
2018-09-14T18:28:50.758Z,100287.33
2018-09-14T18:31:19.531Z,100284.97
2018-09-14T18:33:48.272Z,100285.30
2018-09-14T18:36:17.079Z,100279.53
2018-09-14T18:38:45.919Z,100283.94
2018-09-14T18:41:14.631Z,100274.66
2018-09-14T18:43:43.396Z,100275.89
2018-09-14T18:46:12.064Z,100268.20
2018-09-14T18:48:40.749Z,100274.01
2018-09-14T18:51:09.434Z,100280.87
2018-09-14T18:53:38.103Z,100286.36
2018-09-14T18:56:07.006Z,100285.66
2018-09-14T18:58:35.690Z,100293.52
2018-09-14T19:01:04.379Z,100291.87
2018-09-14T19:03:34.074Z,100286.65
2018-09-14T19:06:02.714Z,100291.66
2018-09-14T19:08:31.387Z,100296.52
2018-09-14T19:11:00.084Z,100292.19
2018-09-14T19:13:28.799Z,100293.73
2018-09-14T19:15:57.706Z,100291.80
2018-09-14T19:18:27.017Z,100288.84
2018-09-14T19:20:55.662Z,100290.31
2018-09-14T19:23:24.308Z,100287.91
2018-09-14T19:25:52.983Z,100286.60
2018-09-14T19:28:21.822Z,100288.36
2018-09-14T19:30:50.486Z,100294.28
2018-09-14T19:33:19.261Z,100295.59
2018-09-14T19:35:47.985Z,100293.62
2018-09-14T19:38:16.644Z,100297.58
2018-09-14T19:40:45.346Z,100296.67
2018-09-14T19:43:14.098Z,100301.70
2018-09-14T19:45:42.758Z,100301.77
2018-09-14T19:48:11.410Z,100306.40
2018-09-14T19:50:40.049Z,100302.64
2018-09-14T19:53:08.783Z,100300.41
2018-09-14T19:55:37.434Z,100296.65
2018-09-14T19:58:06.098Z,100297.30
2018-09-14T20:00:34.813Z,100300.77
2018-09-14T20:03:03.501Z,100302.52
2018-09-14T20:05:32.198Z,100300.83
2018-09-14T20:08:00.830Z,100299.61
2018-09-14T20:10:29.494Z,100305.87
2018-09-14T20:12:58.202Z,100304.63
2018-09-14T20:15:26.837Z,100308.63
2018-09-14T20:17:55.621Z,100305.69
2018-09-14T20:20:24.444Z,100301.98
2018-09-14T20:22:53.137Z,100299.81
2018-09-14T20:25:23.533Z,100302.11
2018-09-14T20:27:52.169Z,100297.30
2018-09-14T20:30:20.825Z,100290.50
2018-09-14T20:32:49.518Z,100292.19
2018-09-14T20:35:18.205Z,100287.41
2018-09-14T20:37:46.822Z,100293.01
2018-09-14T20:40:15.516Z,100295.70
2018-09-14T20:42:44.177Z,100298.93
2018-09-14T20:45:12.812Z,100299.99
2018-09-14T20:47:41.801Z,100301.34
2018-09-14T20:50:10.541Z,100299.99
2018-09-14T20:52:39.229Z,100295.13
2018-09-14T20:55:07.953Z,100297.05
2018-09-14T20:57:36.652Z,100295.25
2018-09-14T21:00:05.639Z,100294.44
2018-09-14T21:02:34.302Z,100294.61
2018-09-14T21:05:03.003Z,100287.55
2018-09-14T21:07:31.649Z,100292.13
2018-09-14T21:10:00.276Z,100290.65
2018-09-14T21:12:28.972Z,100289.25
2018-09-14T21:14:57.602Z,100293.64
2018-09-14T21:17:26.319Z,100290.48
2018-09-14T21:19:54.953Z,100291.13
2018-09-14T21:22:23.644Z,100284.87
2018-09-14T21:24:52.377Z,100291.20
2018-09-14T21:27:21.087Z,100289.64
2018-09-14T21:29:49.799Z,100285.80
2018-09-14T21:32:18.451Z,100278.53
2018-09-14T21:34:47.112Z,100274.15
2018-09-14T21:37:15.785Z,100280.65
2018-09-14T21:39:44.429Z,100275.67
2018-09-14T21:42:13.102Z,100274.73
2018-09-14T21:44:42.038Z,100278.48
2018-09-14T21:47:12.625Z,100282.53
2018-09-14T21:49:41.329Z,100281.95
2018-09-14T21:52:09.957Z,100281.66
2018-09-14T21:54:38.589Z,100281.61
2018-09-14T21:57:07.330Z,100272.28
2018-09-14T21:59:35.994Z,100266.61
2018-09-14T22:02:04.744Z,100271.47
2018-09-14T22:04:33.450Z,100268.24
2018-09-14T22:07:02.120Z,100271.64
2018-09-14T22:09:30.788Z,100272.56
2018-09-14T22:11:59.541Z,100264.75
2018-09-14T22:14:28.203Z,100262.59
2018-09-14T22:16:56.854Z,100265.66
2018-09-14T22:19:25.618Z,100264.18
2018-09-14T22:21:54.395Z,100268.27
2018-09-14T22:24:23.069Z,100268.69
2018-09-14T22:26:51.765Z,100273.02
2018-09-14T22:29:20.445Z,100267.75
2018-09-14T22:31:49.117Z,100268.56
2018-09-14T22:34:17.839Z,100273.67
2018-09-14T22:36:46.546Z,100269.27
2018-09-14T22:39:15.346Z,100272.03
2018-09-14T22:41:44.068Z,100268.33
2018-09-14T22:44:12.745Z,100263.46
2018-09-14T22:46:41.392Z,100259.90
2018-09-14T22:49:10.095Z,100255.48
2018-09-14T22:51:38.784Z,100252.34
2018-09-14T22:54:07.450Z,100257.20
2018-09-14T22:56:36.149Z,100253.53
2018-09-14T22:59:04.993Z,100253.20
2018-09-14T23:01:34.694Z,100243.52
2018-09-14T23:04:03.793Z,100248.58
2018-09-14T23:06:33.273Z,100244.70
2018-09-14T23:09:02.071Z,100244.66
2018-09-14T23:11:31.022Z,100243.30
2018-09-14T23:13:59.920Z,100250.09
2018-09-14T23:16:28.805Z,100246.34
2018-09-14T23:18:57.593Z,100240.13
2018-09-14T23:21:26.856Z,100249.23
2018-09-14T23:23:55.597Z,100240.77
2018-09-14T23:26:25.820Z,100248.62
2018-09-14T23:28:54.461Z,100242.50
2018-09-14T23:31:23.149Z,100242.66
2018-09-14T23:33:51.807Z,100239.79
2018-09-14T23:36:20.535Z,100244.81
2018-09-14T23:38:49.172Z,100243.18
2018-09-14T23:41:17.823Z,100242.08
2018-09-14T23:43:46.566Z,100237.45
2018-09-14T23:46:15.350Z,100232.06
2018-09-14T23:48:44.012Z,100238.52
2018-09-14T23:51:12.698Z,100237.63
2018-09-14T23:53:41.365Z,100233.14
2018-09-14T23:56:10.055Z,100225.58
2018-09-14T23:58:38.689Z,100233.37
